createdAt,value
2022-09-07T00:00:53.899Z,2.83
2022-09-07T00:03:22.519Z,2.22
2022-09-07T00:05:52.666Z,1.90
2022-09-07T00:08:23.285Z,1.80
2022-09-07T00:10:57.744Z,1.83
2022-09-07T00:13:28.305Z,1.75
2022-09-07T00:15:56.580Z,2.22
2022-09-07T00:18:25.190Z,1.95
2022-09-07T00:20:59.691Z,2.10
2022-09-07T00:23:28.784Z,2.15
2022-09-07T00:26:02.054Z,1.92
2022-09-07T00:28:31.538Z,2.22
2022-09-07T00:30:59.947Z,1.85
2022-09-07T00:33:28.448Z,2.08
2022-09-07T00:35:56.586Z,2.05
2022-09-07T00:38:24.936Z,1.98
2022-09-07T00:40:53.274Z,2.20
2022-09-07T00:43:32.941Z,2.00
2022-09-07T00:46:01.401Z,1.83
2022-09-07T00:48:33.715Z,2.45
2022-09-07T00:51:06.268Z,2.13
2022-09-07T00:53:39.944Z,1.83
2022-09-07T00:56:08.557Z,2.25
2022-09-07T00:58:41.639Z,2.25
2022-09-07T01:01:10.272Z,2.00
2022-09-07T01:03:43.191Z,2.40
2022-09-07T01:06:16.805Z,1.85
2022-09-07T01:08:47.249Z,2.13
2022-09-07T01:11:15.166Z,1.83
2022-09-07T01:13:46.970Z,2.25
2022-09-07T01:16:27.325Z,2.00
2022-09-07T01:19:10.127Z,1.85
2022-09-07T01:21:58.227Z,2.05
2022-09-07T01:24:54.591Z,1.90
2022-09-07T01:28:04.056Z,2.13
2022-09-07T01:30:35.922Z,2.35
2022-09-07T01:35:48.846Z,2.30
2022-09-07T01:38:23.481Z,2.45
2022-09-07T01:40:58.048Z,2.33
2022-09-07T01:43:38.342Z,2.30
2022-09-07T01:46:17.561Z,2.25
2022-09-07T01:48:49.546Z,2.30
2022-09-07T01:51:20.033Z,2.17
2022-09-07T01:53:52.681Z,2.33
2022-09-07T01:58:57.153Z,2.30
2022-09-07T02:01:29.550Z,2.08
2022-09-07T02:04:03.958Z,2.13
2022-09-07T02:06:39.881Z,2.40
2022-09-07T02:09:14.186Z,2.00
2022-09-07T02:11:46.936Z,1.85
2022-09-07T02:14:23.015Z,2.20
2022-09-07T02:16:58.077Z,2.70
2022-09-07T02:19:29.836Z,2.22
2022-09-07T02:22:01.698Z,1.92
2022-09-07T02:24:35.259Z,2.30
2022-09-07T02:27:05.845Z,2.53
2022-09-07T02:29:35.494Z,2.33
2022-09-07T02:32:04.039Z,2.45
2022-09-07T02:34:32.565Z,2.65
2022-09-07T02:37:03.922Z,2.65
2022-09-07T02:39:32.232Z,2.53
2022-09-07T02:42:00.237Z,2.45
2022-09-07T02:44:34.624Z,2.15
2022-09-07T02:47:16.897Z,2.60
2022-09-07T02:50:01.246Z,2.33
2022-09-07T02:52:40.957Z,2.50
2022-09-07T02:55:16.881Z,2.35
2022-09-07T02:57:53.965Z,2.58
2022-09-07T03:00:26.033Z,2.50
2022-09-07T03:03:07.605Z,2.45
2022-09-07T03:05:43.446Z,2.58
2022-09-07T03:08:15.049Z,2.58
2022-09-07T03:10:44.681Z,2.20
2022-09-07T03:13:21.551Z,2.40
2022-09-07T03:15:54.963Z,2.67
2022-09-07T03:18:25.883Z,2.83
2022-09-07T03:20:54.536Z,2.70
2022-09-07T03:23:22.719Z,2.63
2022-09-07T03:25:51.093Z,2.92
2022-09-07T03:28:19.272Z,2.85
2022-09-07T03:30:48.001Z,2.63
2022-09-07T03:33:16.980Z,2.92
2022-09-07T03:35:47.278Z,2.47
2022-09-07T03:38:15.188Z,2.40
2022-09-07T03:40:43.022Z,2.45
2022-09-07T03:43:11.062Z,2.78
2022-09-07T03:45:38.826Z,2.40
2022-09-07T03:48:06.813Z,3.38
2022-09-07T03:50:34.920Z,2.97
2022-09-07T03:53:04.073Z,2.83
2022-09-07T03:55:31.844Z,2.92
2022-09-07T03:57:59.876Z,3.47
2022-09-07T04:00:27.662Z,3.28
2022-09-07T04:02:55.542Z,3.22
2022-09-07T04:05:24.004Z,3.20
2022-09-07T04:07:52.494Z,3.08
2022-09-07T04:10:21.775Z,2.70
2022-09-07T04:12:50.533Z,3.40
2022-09-07T04:15:18.320Z,2.63
2022-09-07T04:17:46.097Z,2.80
2022-09-07T04:20:14.253Z,2.88
2022-09-07T04:22:42.061Z,3.33
2022-09-07T04:25:10.224Z,3.00
2022-09-07T04:27:39.788Z,3.00
2022-09-07T04:30:08.676Z,2.80
2022-09-07T04:32:36.436Z,3.17
2022-09-07T04:35:04.637Z,2.85
2022-09-07T04:37:32.400Z,2.95
2022-09-07T04:40:00.250Z,3.00
2022-09-07T04:42:28.349Z,2.70
2022-09-07T04:44:57.829Z,3.00
2022-09-07T04:47:26.138Z,2.58
2022-09-07T04:49:54.229Z,2.80
2022-09-07T04:52:22.186Z,2.88
2022-09-07T04:54:50.600Z,2.88
2022-09-07T04:57:21.633Z,3.45
2022-09-07T04:59:51.911Z,3.05
2022-09-07T05:02:22.130Z,3.53
2022-09-07T05:04:53.357Z,3.45
2022-09-07T05:07:21.514Z,3.50
2022-09-07T05:09:52.819Z,3.30
2022-09-07T05:12:20.604Z,3.65
2022-09-07T05:14:49.104Z,3.65
2022-09-07T05:17:17.105Z,3.80
2022-09-07T05:19:46.737Z,3.03
2022-09-07T05:22:15.313Z,3.03
2022-09-07T05:24:43.054Z,3.50
2022-09-07T05:27:10.909Z,3.45
2022-09-07T05:32:27.043Z,3.70
2022-09-07T05:34:57.330Z,3.70
2022-09-07T05:37:25.130Z,3.38
2022-09-07T05:39:56.272Z,3.60
2022-09-07T05:42:24.358Z,3.67
2022-09-07T05:44:53.094Z,3.95
2022-09-07T05:47:20.857Z,3.80
2022-09-07T05:49:49.829Z,3.72
2022-09-07T05:52:20.505Z,3.90
2022-09-07T05:54:49.047Z,3.95
2022-09-07T05:57:17.276Z,3.97
2022-09-07T06:03:50.862Z,3.35
2022-09-07T06:06:19.856Z,4.07
2022-09-07T06:08:50.341Z,3.47
2022-09-07T06:11:20.090Z,5.00
2022-09-07T06:13:48.873Z,3.70
2022-09-07T06:16:18.375Z,4.72
2022-09-07T06:18:48.018Z,4.13
2022-09-07T06:21:17.939Z,3.95
2022-09-07T06:23:46.790Z,3.95
2022-09-07T06:26:17.316Z,3.88
2022-09-07T06:28:49.657Z,4.25
2022-09-07T06:31:20.811Z,3.85
2022-09-07T06:33:49.587Z,4.05
2022-09-07T06:36:19.750Z,4.38
2022-09-07T06:38:48.286Z,4.10
2022-09-07T06:44:07.528Z,4.38
2022-09-07T06:49:23.868Z,4.32
2022-09-07T06:51:52.184Z,3.95
2022-09-07T06:57:09.914Z,4.25
2022-09-07T06:59:38.665Z,4.95
2022-09-07T07:02:07.015Z,4.15
2022-09-07T07:04:40.212Z,5.03
2022-09-07T07:07:11.670Z,4.55
2022-09-07T07:09:39.862Z,4.63
2022-09-07T07:12:09.613Z,5.10
2022-09-07T07:14:41.066Z,4.57
2022-09-07T07:17:12.549Z,4.50
2022-09-07T07:19:40.321Z,4.53
2022-09-07T07:22:23.942Z,5.60
2022-09-07T07:24:56.148Z,5.63
2022-09-07T07:27:25.214Z,5.43
2022-09-07T07:29:53.872Z,4.85
2022-09-07T07:32:22.005Z,5.22
2022-09-07T07:34:50.052Z,5.18
2022-09-07T07:37:17.781Z,4.95
2022-09-07T07:42:38.373Z,5.63
2022-09-07T07:47:55.207Z,5.22
2022-09-07T07:50:31.732Z,5.88
2022-09-07T07:55:48.804Z,5.53
2022-09-07T07:58:18.312Z,6.68
2022-09-07T08:00:55.635Z,5.55
2022-09-07T08:03:25.863Z,5.40
2022-09-07T08:05:53.935Z,5.43
2022-09-07T08:08:22.942Z,4.90
2022-09-07T08:10:51.181Z,5.32
2022-09-07T08:13:21.344Z,5.28
2022-09-07T08:15:49.293Z,5.88
2022-09-07T08:18:18.617Z,6.07
2022-09-07T08:20:46.392Z,5.80
2022-09-07T08:23:15.188Z,5.53
2022-09-07T08:25:51.492Z,5.30
2022-09-07T08:28:21.202Z,5.32
2022-09-07T08:30:49.357Z,5.70
2022-09-07T08:33:17.476Z,5.15
2022-09-07T08:35:55.502Z,5.20
2022-09-07T08:38:23.656Z,5.07
2022-09-07T08:40:51.970Z,5.63
2022-09-07T08:43:47.130Z,5.53
2022-09-07T08:46:27.633Z,5.72
2022-09-07T08:48:58.312Z,5.97
2022-09-07T08:51:37.226Z,6.05
2022-09-07T08:54:06.971Z,5.35
2022-09-07T08:56:39.287Z,5.35
2022-09-07T08:59:19.463Z,5.88
2022-09-07T09:02:27.024Z,5.57
2022-09-07T09:05:16.260Z,5.68
2022-09-07T09:07:31.717Z,5.32
2022-09-07T09:10:12.932Z,5.53
2022-09-07T09:12:56.110Z,5.93
2022-09-07T09:15:35.457Z,5.88
2022-09-07T09:18:14.512Z,6.05
2022-09-07T09:20:46.900Z,6.22
2022-09-07T09:23:17.138Z,5.45
2022-09-07T09:25:52.849Z,6.28
2022-09-07T09:28:20.925Z,5.45
2022-09-07T09:30:50.342Z,6.47
2022-09-07T09:33:20.887Z,5.68
2022-09-07T09:35:50.989Z,5.63
2022-09-07T09:38:31.911Z,4.97
2022-09-07T09:41:04.124Z,5.50
2022-09-07T09:43:44.487Z,5.00
2022-09-07T09:46:23.806Z,5.85
2022-09-07T09:48:56.846Z,5.68
2022-09-07T09:54:24.563Z,5.30
2022-09-07T09:56:53.376Z,5.30
2022-09-07T10:05:28.520Z,5.03
2022-09-07T10:07:57.263Z,4.93
2022-09-07T10:10:27.301Z,5.90
2022-09-07T10:12:56.332Z,4.63
2022-09-07T10:15:39.638Z,5.65
2022-09-07T10:18:19.385Z,5.70
2022-09-07T10:20:47.289Z,6.68
2022-09-07T10:23:23.175Z,5.13
2022-09-07T10:25:51.345Z,6.15
2022-09-07T10:28:21.151Z,5.25
2022-09-07T10:31:14.686Z,4.88
2022-09-07T10:36:45.120Z,5.40
2022-09-07T10:39:17.136Z,4.78
2022-09-07T10:41:52.629Z,5.10
2022-09-07T10:44:34.130Z,5.45
2022-09-07T10:47:05.985Z,5.22
2022-09-07T10:50:21.790Z,4.85
2022-09-07T10:52:42.741Z,5.25
2022-09-07T10:55:16.806Z,5.10
2022-09-07T10:57:58.412Z,4.97
2022-09-07T11:00:31.493Z,5.20
2022-09-07T11:03:25.343Z,5.15
2022-09-07T11:06:06.408Z,5.57
2022-09-07T11:14:28.346Z,5.28
2022-09-07T11:17:01.114Z,5.70
2022-09-07T11:19:35.941Z,5.55
2022-09-07T11:22:18.218Z,4.60
2022-09-07T11:27:43.443Z,5.22
2022-09-07T11:30:19.983Z,4.82
2022-09-07T11:32:56.369Z,5.10
2022-09-07T11:35:35.262Z,5.07
2022-09-07T11:38:14.735Z,6.07
2022-09-07T11:40:51.205Z,5.40
2022-09-07T11:43:23.598Z,5.15
2022-09-07T11:45:55.430Z,5.55
2022-09-07T11:48:30.721Z,4.75
2022-09-07T11:51:04.161Z,5.32
2022-09-07T11:53:37.845Z,4.95
2022-09-07T11:56:13.127Z,5.75
2022-09-07T11:58:58.449Z,5.15
2022-09-07T12:01:39.406Z,4.97
2022-09-07T12:04:29.625Z,4.63
2022-09-07T12:07:26.933Z,5.07
2022-09-07T12:10:23.511Z,4.65
2022-09-07T12:13:06.099Z,5.22
2022-09-07T12:15:45.077Z,4.90
2022-09-07T12:18:27.630Z,5.30
2022-09-07T12:20:55.993Z,4.70
2022-09-07T12:23:30.056Z,4.68
2022-09-07T12:26:35.459Z,4.78
2022-09-07T12:29:21.474Z,4.50
2022-09-07T12:32:07.853Z,4.32
2022-09-07T12:35:01.582Z,4.15
2022-09-07T12:37:43.343Z,4.13
2022-09-07T12:43:31.245Z,3.92
2022-09-07T12:46:01.716Z,4.40
2022-09-07T12:48:44.348Z,4.00
2022-09-07T12:54:20.322Z,3.80
2022-09-07T13:00:05.087Z,4.68
2022-09-07T13:02:55.307Z,3.90
2022-09-07T13:05:41.576Z,3.92
2022-09-07T13:08:34.664Z,3.88
2022-09-07T13:11:17.831Z,4.47
2022-09-07T13:14:06.269Z,3.70
2022-09-07T13:20:04.277Z,3.30
2022-09-07T13:23:08.837Z,3.40
2022-09-07T13:25:46.325Z,3.65
2022-09-07T13:28:25.383Z,3.47
2022-09-07T13:31:07.408Z,4.00
2022-09-07T13:33:48.090Z,3.60
2022-09-07T13:36:27.129Z,4.60
2022-09-07T13:38:56.688Z,3.90
2022-09-07T13:41:38.077Z,3.92
2022-09-07T13:46:51.738Z,3.75
2022-09-07T13:49:35.294Z,4.00
2022-09-07T13:52:08.317Z,3.60
2022-09-07T13:54:51.664Z,3.83
2022-09-07T13:57:27.378Z,3.80
2022-09-07T13:59:55.987Z,3.33
2022-09-07T14:02:27.054Z,4.47
2022-09-07T14:04:57.281Z,4.60
2022-09-07T14:07:27.882Z,4.18
2022-09-07T14:10:12.956Z,4.65
2022-09-07T14:12:46.099Z,4.00
2022-09-07T14:15:22.897Z,4.28
2022-09-07T14:18:01.514Z,4.50
2022-09-07T14:20:29.541Z,4.22
2022-09-07T14:22:57.645Z,4.03
2022-09-07T14:25:27.176Z,4.03
2022-09-07T14:27:56.870Z,4.10
2022-09-07T14:30:28.974Z,4.55
2022-09-07T14:33:00.851Z,3.90
2022-09-07T14:35:34.426Z,3.83
2022-09-07T14:38:08.267Z,4.68
2022-09-07T14:40:38.073Z,4.22
2022-09-07T14:43:27.945Z,4.18
2022-09-07T14:46:13.142Z,4.45
2022-09-07T14:48:42.043Z,3.80
2022-09-07T14:51:29.504Z,4.15
2022-09-07T14:54:00.805Z,4.63
2022-09-07T14:56:33.782Z,4.07
2022-09-07T14:59:01.520Z,4.75
2022-09-07T15:01:37.895Z,4.40
2022-09-07T15:04:17.896Z,5.38
2022-09-07T15:07:02.214Z,5.28
2022-09-07T15:09:35.897Z,4.90
2022-09-07T15:12:17.610Z,4.07
2022-09-07T15:20:38.679Z,3.85
2022-09-07T15:23:11.189Z,4.47
2022-09-07T15:25:40.717Z,4.32
2022-09-07T15:33:59.913Z,4.18
2022-09-07T15:36:28.818Z,4.13
2022-09-07T15:39:04.400Z,4.32
2022-09-07T15:41:32.713Z,4.75
2022-09-07T15:44:01.754Z,4.10
2022-09-07T15:46:29.549Z,4.45
2022-09-07T15:48:58.276Z,4.65
2022-09-07T15:54:16.638Z,5.63
2022-09-07T15:57:48.422Z,5.97
2022-09-07T15:59:34.867Z,5.35
2022-09-07T16:02:02.819Z,6.57
2022-09-07T16:04:31.198Z,7.20
2022-09-07T16:07:01.709Z,4.75
2022-09-07T16:09:29.567Z,6.45
2022-09-07T16:12:59.937Z,5.93
2022-09-07T16:14:47.249Z,5.80
2022-09-07T16:20:03.940Z,4.93
2022-09-07T16:25:20.042Z,6.40
2022-09-07T16:27:47.984Z,7.00
2022-09-07T16:30:17.088Z,6.03
2022-09-07T16:32:45.269Z,6.28
2022-09-07T16:35:13.161Z,6.40
2022-09-07T16:38:43.726Z,5.88
2022-09-07T16:40:29.230Z,5.97
2022-09-07T16:42:56.932Z,5.35
2022-09-07T16:48:16.336Z,6.07
2022-09-07T16:51:00.393Z,7.00
2022-09-07T16:53:30.046Z,6.70
2022-09-07T16:56:01.614Z,6.70
2022-09-07T16:58:38.288Z,7.45
2022-09-07T17:01:09.360Z,6.75
2022-09-07T17:03:37.576Z,7.40
2022-09-07T17:06:07.625Z,8.90
2022-09-07T17:08:36.905Z,9.45
2022-09-07T17:11:06.757Z,6.53
2022-09-07T17:13:35.510Z,6.53
2022-09-07T17:16:04.136Z,7.43
2022-09-07T17:21:22.826Z,6.63
2022-09-07T17:23:55.214Z,8.05
2022-09-07T17:26:27.044Z,7.38
2022-09-07T17:29:00.080Z,7.15
2022-09-07T17:34:20.830Z,6.63
2022-09-07T17:36:48.810Z,6.15
2022-09-07T17:39:18.805Z,6.68
2022-09-07T17:41:47.714Z,5.97
2022-09-07T17:44:16.576Z,6.20
2022-09-07T17:46:44.790Z,6.82
2022-09-07T17:49:14.351Z,8.30
2022-09-07T17:51:43.990Z,7.43
2022-09-07T17:54:13.763Z,6.50
2022-09-07T17:56:42.404Z,6.75
2022-09-07T18:01:59.653Z,8.32
2022-09-07T18:04:28.529Z,8.18
2022-09-07T18:06:57.917Z,8.48
2022-09-07T18:09:25.725Z,8.40
2022-09-07T18:11:53.838Z,8.57
2022-09-07T18:14:21.577Z,9.40
2022-09-07T18:16:51.094Z,10.40
2022-09-07T18:19:19.805Z,8.25
2022-09-07T18:21:48.641Z,8.32
2022-09-07T18:24:21.005Z,8.45
2022-09-07T18:26:52.089Z,9.60
2022-09-07T18:29:37.523Z,8.30
2022-09-07T18:32:08.925Z,7.85
2022-09-07T18:34:41.143Z,8.57
2022-09-07T18:37:12.046Z,9.35
2022-09-07T18:39:41.618Z,10.32
2022-09-07T18:42:10.025Z,9.77
2022-09-07T18:47:28.863Z,22.38
2022-09-07T18:49:58.964Z,15.77
2022-09-07T18:55:17.153Z,16.95
2022-09-07T18:57:45.339Z,19.80
2022-09-07T19:00:14.047Z,16.05
2022-09-07T19:02:42.255Z,14.80
2022-09-07T19:08:03.135Z,15.30
2022-09-07T19:10:35.041Z,13.90
2022-09-07T19:13:03.842Z,13.60
2022-09-07T19:15:37.129Z,11.70
2022-09-07T19:18:08.293Z,11.98
2022-09-07T19:20:37.025Z,11.63
2022-09-07T19:23:05.151Z,14.05
2022-09-07T19:25:34.702Z,15.88
2022-09-07T19:28:02.502Z,15.82
2022-09-07T19:30:30.422Z,15.68
2022-09-07T19:33:03.364Z,17.63
2022-09-07T19:35:36.059Z,16.38
2022-09-07T19:38:04.672Z,16.55
2022-09-07T19:40:33.913Z,14.82
2022-09-07T19:43:01.840Z,14.98
2022-09-07T19:45:30.202Z,13.75
2022-09-07T19:47:58.054Z,13.60
2022-09-07T19:50:25.956Z,13.43
2022-09-07T19:52:54.084Z,13.90
2022-09-07T19:55:21.785Z,13.05
2022-09-07T19:57:51.994Z,13.90
2022-09-07T20:00:20.277Z,13.52
2022-09-07T20:02:49.162Z,13.77
2022-09-07T20:05:17.633Z,15.55
2022-09-07T20:07:45.893Z,14.40
2022-09-07T20:10:13.749Z,14.82
2022-09-07T20:12:41.689Z,13.50
2022-09-07T20:15:11.602Z,12.82
2022-09-07T20:17:39.444Z,13.13
2022-09-07T20:20:08.271Z,12.70
2022-09-07T20:22:36.301Z,12.90
2022-09-07T20:25:04.413Z,13.07
2022-09-07T20:27:35.659Z,13.60
2022-09-07T20:30:04.144Z,13.77
2022-09-07T20:32:33.229Z,14.27
2022-09-07T20:35:01.419Z,14.07
2022-09-07T20:37:29.482Z,14.52
2022-09-07T20:39:57.260Z,14.75
2022-09-07T20:42:25.021Z,15.60
2022-09-07T20:44:53.508Z,13.38
2022-09-07T20:47:21.283Z,13.80
2022-09-07T20:49:52.150Z,15.25
2022-09-07T20:52:20.421Z,14.50
2022-09-07T20:54:48.129Z,15.57
2022-09-07T20:57:15.863Z,15.15
2022-09-07T20:59:43.983Z,16.20
2022-09-07T21:02:11.726Z,16.40
2022-09-07T21:04:39.931Z,15.63
2022-09-07T21:07:09.665Z,15.65
2022-09-07T21:09:37.344Z,15.63
2022-09-07T21:12:05.277Z,16.00
2022-09-07T21:14:33.281Z,15.93
2022-09-07T21:17:01.080Z,17.05
2022-09-07T21:19:28.842Z,16.17
2022-09-07T21:21:57.063Z,16.63
2022-09-07T21:24:26.421Z,16.45
2022-09-07T21:26:54.222Z,16.77
2022-09-07T21:29:24.341Z,16.33
2022-09-07T21:31:54.236Z,16.38
2022-09-07T21:34:22.521Z,16.17
2022-09-07T21:36:50.570Z,16.58
2022-09-07T21:39:19.180Z,16.73
2022-09-07T21:41:48.378Z,16.98
2022-09-07T21:44:17.298Z,17.85
2022-09-07T21:46:45.519Z,17.48
2022-09-07T21:49:13.776Z,17.55
2022-09-07T21:51:42.088Z,17.80
2022-09-07T21:54:10.572Z,18.55
2022-09-07T21:56:41.014Z,19.23
2022-09-07T21:59:12.828Z,18.13
2022-09-07T22:01:41.154Z,18.20
2022-09-07T22:04:09.061Z,17.90
2022-09-07T22:06:37.620Z,20.77
2022-09-07T22:09:05.932Z,19.60
2022-09-07T22:11:33.809Z,18.95
2022-09-07T22:14:04.411Z,19.73
2022-09-07T22:16:35.198Z,18.15
2022-09-07T22:19:03.453Z,18.40
2022-09-07T22:21:32.050Z,19.13
2022-09-07T22:24:02.061Z,19.85
2022-09-07T22:26:32.480Z,20.05
2022-09-07T22:29:01.074Z,24.67
2022-09-07T22:31:31.700Z,20.80
2022-09-07T22:34:55.510Z,23.15
2022-09-07T22:37:24.791Z,22.02
2022-09-07T22:39:53.766Z,23.15
2022-09-07T22:42:21.424Z,24.17
2022-09-07T22:44:49.088Z,23.38
2022-09-07T22:47:17.093Z,24.00
2022-09-07T22:49:44.768Z,24.95
2022-09-07T22:52:12.622Z,24.20
2022-09-07T22:54:41.917Z,25.83
2022-09-07T22:57:09.969Z,26.08
2022-09-07T22:59:37.850Z,25.92
2022-09-07T23:02:05.868Z,26.15
2022-09-07T23:04:33.657Z,24.27
2022-09-07T23:07:01.499Z,24.95
2022-09-07T23:09:29.721Z,26.38
2022-09-07T23:11:58.706Z,25.08
2022-09-07T23:14:26.526Z,24.50
2022-09-07T23:16:54.670Z,24.63
2022-09-07T23:19:22.424Z,26.27
2022-09-07T23:21:50.109Z,24.77
2022-09-07T23:24:19.311Z,25.70
2022-09-07T23:26:47.554Z,26.10
2022-09-07T23:29:16.942Z,25.65
2022-09-07T23:31:46.407Z,25.88
2022-09-07T23:34:14.164Z,24.92
2022-09-07T23:36:41.944Z,25.48
2022-09-07T23:39:10.521Z,26.33
2022-09-07T23:41:38.169Z,25.25
2022-09-07T23:44:06.151Z,23.17
2022-09-07T23:46:36.042Z,23.33
2022-09-07T23:49:03.948Z,22.67
2022-09-07T23:51:31.631Z,24.13
2022-09-07T23:53:59.752Z,24.02
2022-09-07T23:56:27.992Z,25.20
2022-09-07T23:58:55.663Z,25.27
